Time;durP1;ratioP1;P1;durP2;ratioP2;P2;SDS_P1;SDS_P2;PMS_P1;PMS_P2;Temp;Humidity;BMP_temperature;BMP_pressure;BME280_temperature;BME280_humidity;BME280_pressure;Samples;Min_cycle;Max_cycle;Signal;HPM_P1;HPM_P2
2022/05/12 00:00:55;;;;;;;10.43;3.22;;;;;;;;;;4899288;29;20083;-69
2022/05/12 00:03:21;;;;;;;8.25;3.30;;;;;;;;;;4898831;29;20031;-70
2022/05/12 00:05:47;;;;;;;8.45;3.30;;;;;;;;;;4898624;29;20037;-69
2022/05/12 00:08:14;;;;;;;9.25;3.53;;;;;;;;;;4898413;29;20024;-69
2022/05/12 00:10:41;;;;;;;10.30;2.72;;;;;;;;;;4898501;29;20043;-69
2022/05/12 00:13:08;;;;;;;11.85;3.03;;;;;;;;;;4894058;29;20029;-69
2022/05/12 00:15:35;;;;;;;7.18;3.13;;;;;;;;;;4898103;29;20021;-69
2022/05/12 00:18:03;;;;;;;9.63;3.22;;;;;;;;;;4898134;29;20025;-69
2022/05/12 00:20:31;;;;;;;8.77;3.47;;;;;;;;;;4897913;29;20458;-69
2022/05/12 00:23:07;;;;;;;7.35;3.80;;;;;;;;;;4898095;29;20504;-69
2022/05/12 00:25:33;;;;;;;9.73;3.70;;;;;;;;;;4898137;29;20058;-69
2022/05/12 00:27:59;;;;;;;8.32;3.35;;;;;;;;;;4898664;29;20027;-69
2022/05/12 00:30:26;;;;;;;10.82;3.00;;;;;;;;;;4896956;29;20045;-69
2022/05/12 00:32:52;;;;;;;10.05;3.30;;;;;;;;;;4897766;29;20521;-69
2022/05/12 00:35:18;;;;;;;7.80;3.50;;;;;;;;;;4898049;29;20451;-69
2022/05/12 00:37:45;;;;;;;7.57;2.90;;;;;;;;;;4898213;29;20025;-69
2022/05/12 00:40:13;;;;;;;7.97;3.10;;;;;;;;;;4898364;29;20036;-69
2022/05/12 00:42:52;;;;;;;9.48;3.10;;;;;;;;;;4897720;29;20037;-69
2022/05/12 00:45:18;;;;;;;6.97;3.20;;;;;;;;;;4897801;29;20033;-69
2022/05/12 00:47:45;;;;;;;8.60;3.10;;;;;;;;;;4898064;29;20039;-69
2022/05/12 00:50:11;;;;;;;7.68;3.35;;;;;;;;;;4897768;29;20035;-69
2022/05/12 00:52:38;;;;;;;13.07;3.67;;;;;;;;;;4897672;29;20047;-69
2022/05/12 00:55:14;;;;;;;9.45;3.22;;;;;;;;;;4898481;29;20067;-69
2022/05/12 00:57:43;;;;;;;6.85;3.03;;;;;;;;;;4897466;29;20021;-69
2022/05/12 01:00:11;;;;;;;11.20;3.20;;;;;;;;;;4912106;29;20035;-69
2022/05/12 01:02:39;;;;;;;9.80;3.10;;;;;;;;;;4897585;29;20043;-69
2022/05/12 01:05:05;;;;;;;7.57;3.53;;;;;;;;;;4897562;29;20496;-69
2022/05/12 01:07:31;;;;;;;9.68;3.00;;;;;;;;;;4897513;29;20044;-69
2022/05/12 01:10:00;;;;;;;11.85;3.63;;;;;;;;;;4898056;29;20033;-69
2022/05/12 01:12:27;;;;;;;6.93;3.40;;;;;;;;;;4897325;29;20027;-69
2022/05/12 01:14:53;;;;;;;9.32;3.80;;;;;;;;;;4897330;29;20032;-69
2022/05/12 01:17:19;;;;;;;10.60;3.53;;;;;;;;;;4897256;29;20029;-69
2022/05/12 01:19:48;;;;;;;5.55;3.38;;;;;;;;;;4897262;29;20021;-69
2022/05/12 01:22:34;;;;;;;8.25;3.72;;;;;;;;;;4896311;29;20049;-69
2022/05/12 01:25:00;;;;;;;14.23;3.67;;;;;;;;;;4896897;29;20393;-69
2022/05/12 01:27:30;;;;;;;9.38;3.65;;;;;;;;;;4896746;29;20028;-69
2022/05/12 01:29:58;;;;;;;7.70;3.40;;;;;;;;;;4896907;29;20044;-69
2022/05/12 01:32:26;;;;;;;5.05;3.20;;;;;;;;;;4896963;29;20092;-69
2022/05/12 01:34:52;;;;;;;7.07;3.40;;;;;;;;;;4897107;29;20029;-69
2022/05/12 01:37:19;;;;;;;8.95;3.80;;;;;;;;;;4897094;29;20032;-69
2022/05/12 01:39:45;;;;;;;9.95;3.60;;;;;;;;;;4897329;29;20561;-69
2022/05/12 01:42:12;;;;;;;8.30;3.58;;;;;;;;;;4896858;29;20043;-69
2022/05/12 01:44:39;;;;;;;9.88;3.35;;;;;;;;;;4896875;29;20021;-69
2022/05/12 01:47:06;;;;;;;7.85;3.80;;;;;;;;;;4897260;29;20043;-69
2022/05/12 01:49:33;;;;;;;7.93;3.53;;;;;;;;;;4896010;29;20505;-69
2022/05/12 01:52:00;;;;;;;9.23;3.70;;;;;;;;;;4897371;29;20509;-69
2022/05/12 01:54:27;;;;;;;8.63;3.67;;;;;;;;;;4896680;29;20028;-69
2022/05/12 01:56:53;;;;;;;11.77;4.00;;;;;;;;;;4896647;29;20025;-69
2022/05/12 01:59:20;;;;;;;7.20;3.83;;;;;;;;;;4896763;29;20028;-69
2022/05/12 02:01:47;;;;;;;11.73;3.80;;;;;;;;;;4897064;29;20020;-69
2022/05/12 02:04:14;;;;;;;5.85;3.97;;;;;;;;;;4897178;29;20021;-69
2022/05/12 02:06:40;;;;;;;14.27;4.10;;;;;;;;;;4897226;29;20467;-69
2022/05/12 02:09:07;;;;;;;8.32;3.72;;;;;;;;;;4896429;29;20083;-69
2022/05/12 02:11:33;;;;;;;7.57;3.70;;;;;;;;;;4896506;29;20074;-69
2022/05/12 02:14:00;;;;;;;5.85;3.20;;;;;;;;;;4896736;29;20051;-69
2022/05/12 02:16:27;;;;;;;12.95;3.90;;;;;;;;;;4896754;29;20040;-69
2022/05/12 02:18:54;;;;;;;7.60;3.63;;;;;;;;;;4897481;29;20028;-69
2022/05/12 02:21:20;;;;;;;11.45;3.92;;;;;;;;;;4896118;29;20068;-69
2022/05/12 02:23:47;;;;;;;10.30;3.30;;;;;;;;;;4896203;29;20052;-69
2022/05/12 02:26:14;;;;;;;7.57;3.60;;;;;;;;;;4896765;29;20033;-69
2022/05/12 02:28:40;;;;;;;8.25;4.15;;;;;;;;;;4896741;29;20088;-69
2022/05/12 02:31:07;;;;;;;6.68;3.63;;;;;;;;;;4897202;29;20048;-69
2022/05/12 02:33:33;;;;;;;11.13;4.20;;;;;;;;;;4896422;29;20487;-69
2022/05/12 02:36:02;;;;;;;9.35;3.92;;;;;;;;;;4895284;29;20032;-69
2022/05/12 02:38:28;;;;;;;8.18;3.85;;;;;;;;;;4899197;29;20409;-69
2022/05/12 02:40:55;;;;;;;8.75;3.95;;;;;;;;;;4900815;29;20076;-69
2022/05/12 02:43:24;;;;;;;8.25;3.63;;;;;;;;;;4900390;29;20029;-69
2022/05/12 02:45:55;;;;;;;9.52;3.70;;;;;;;;;;4898335;29;20036;-69
2022/05/12 02:48:22;;;;;;;;;;;;;;;;;;4900151;29;20145;-69
2022/05/12 02:50:48;;;;;;;9.90;3.63;;;;;;;;;;4899918;29;19919;-69
2022/05/12 02:53:14;;;;;;;8.20;3.47;;;;;;;;;;4900044;29;20027;-69
2022/05/12 02:55:41;;;;;;;11.02;4.35;;;;;;;;;;4899786;29;20024;-69
2022/05/12 02:58:07;;;;;;;6.82;3.92;;;;;;;;;;4900489;29;20482;-69
2022/05/12 03:00:34;;;;;;;9.07;4.05;;;;;;;;;;4899401;29;20035;-69
2022/05/12 03:03:00;;;;;;;10.90;3.60;;;;;;;;;;4899305;29;20406;-69
2022/05/12 03:05:27;;;;;;;6.93;3.90;;;;;;;;;;4899740;29;20032;-69
2022/05/12 03:07:53;;;;;;;9.98;4.38;;;;;;;;;;4899114;29;20033;-69
2022/05/12 03:10:19;;;;;;;7.70;4.32;;;;;;;;;;4899411;29;20059;-69
2022/05/12 03:12:46;;;;;;;9.35;3.88;;;;;;;;;;4899788;29;20037;-69
2022/05/12 03:15:12;;;;;;;7.28;4.15;;;;;;;;;;4899213;29;20032;-69
2022/05/12 03:17:39;;;;;;;7.65;4.22;;;;;;;;;;4899241;29;20032;-69
2022/05/12 03:20:09;;;;;;;7.13;3.90;;;;;;;;;;4899322;29;20017;-69
2022/05/12 03:22:36;;;;;;;9.13;4.10;;;;;;;;;;4898654;29;20037;-68
2022/05/12 03:25:03;;;;;;;7.97;3.63;;;;;;;;;;4899994;29;20037;-69
2022/05/12 03:27:30;;;;;;;9.18;3.42;;;;;;;;;;4899047;29;20402;-69
2022/05/12 03:29:57;;;;;;;8.35;4.05;;;;;;;;;;4898894;29;20036;-69
2022/05/12 03:32:24;;;;;;;8.98;4.00;;;;;;;;;;4898865;29;20039;-69
2022/05/12 03:34:50;;;;;;;8.00;4.05;;;;;;;;;;4899333;29;20025;-69
2022/05/12 03:37:17;;;;;;;8.45;4.00;;;;;;;;;;4899041;29;20027;-69
2022/05/12 03:39:44;;;;;;;8.55;4.43;;;;;;;;;;4898421;29;20023;-70
2022/05/12 03:42:12;;;;;;;9.27;4.38;;;;;;;;;;4899022;29;20035;-69
2022/05/12 03:44:49;;;;;;;12.75;3.97;;;;;;;;;;4899146;29;20068;-69
2022/05/12 03:47:19;;;;;;;8.55;3.97;;;;;;;;;;4898820;29;20029;-69
2022/05/12 03:49:46;;;;;;;9.45;4.05;;;;;;;;;;4898783;29;20054;-69
2022/05/12 03:52:13;;;;;;;8.88;3.88;;;;;;;;;;4898689;29;20043;-69
2022/05/12 03:54:40;;;;;;;7.72;3.72;;;;;;;;;;4898983;29;20045;-69
2022/05/12 03:57:06;;;;;;;8.23;4.00;;;;;;;;;;4898710;29;20028;-69
2022/05/12 03:59:33;;;;;;;9.88;4.35;;;;;;;;;;4898745;29;20033;-69
2022/05/12 04:02:00;;;;;;;6.68;3.75;;;;;;;;;;4898746;29;20035;-69
2022/05/12 04:04:26;;;;;;;5.57;3.63;;;;;;;;;;4898457;29;20031;-69
2022/05/12 04:06:53;;;;;;;6.35;4.10;;;;;;;;;;4898692;29;20035;-69
2022/05/12 04:09:19;;;;;;;6.53;4.00;;;;;;;;;;4898515;29;20032;-69
2022/05/12 04:11:45;;;;;;;10.15;4.10;;;;;;;;;;4898223;29;20502;-69
2022/05/12 04:14:12;;;;;;;11.35;4.60;;;;;;;;;;4898681;29;20032;-69
2022/05/12 04:16:39;;;;;;;8.27;4.20;;;;;;;;;;4898208;29;20524;-69
2022/05/12 04:19:06;;;;;;;8.65;4.50;;;;;;;;;;4898684;29;20037;-69
2022/05/12 04:21:34;;;;;;;8.82;4.18;;;;;;;;;;4897664;29;20052;-69
2022/05/12 04:24:03;;;;;;;12.77;4.90;;;;;;;;;;4898042;29;20029;-69
2022/05/12 04:26:30;;;;;;;7.65;4.35;;;;;;;;;;4897898;29;20100;-69
2022/05/12 04:28:56;;;;;;;6.50;4.20;;;;;;;;;;4898177;29;20561;-69
2022/05/12 04:31:22;;;;;;;7.80;4.43;;;;;;;;;;4898158;29;20040;-69
2022/05/12 04:36:34;;;;;;;9.93;4.65;;;;;;;;;;4897743;29;20027;-69
2022/05/12 04:39:00;;;;;;;9.18;4.63;;;;;;;;;;4898020;29;20076;-69
2022/05/12 04:41:27;;;;;;;12.32;4.13;;;;;;;;;;4912278;29;20378;-69
2022/05/12 04:43:54;;;;;;;8.65;4.60;;;;;;;;;;4898029;29;20031;-69
2022/05/12 04:46:21;;;;;;;10.13;4.43;;;;;;;;;;4897650;29;20504;-69
2022/05/12 04:48:47;;;;;;;10.15;4.15;;;;;;;;;;4897754;29;20430;-69
2022/05/12 04:51:14;;;;;;;12.32;4.07;;;;;;;;;;4897443;29;20039;-69
2022/05/12 04:53:40;;;;;;;9.05;4.18;;;;;;;;;;4897472;29;20031;-69
2022/05/12 04:56:06;;;;;;;9.18;4.75;;;;;;;;;;4897417;29;20035;-69
2022/05/12 04:58:33;;;;;;;7.68;4.45;;;;;;;;;;4897515;29;20036;-69
2022/05/12 05:00:59;;;;;;;13.52;3.72;;;;;;;;;;4897336;29;20044;-69
2022/05/12 05:03:26;;;;;;;12.93;4.38;;;;;;;;;;4896991;29;20043;-69
2022/05/12 05:05:52;;;;;;;8.38;4.13;;;;;;;;;;4897513;29;20033;-69
2022/05/12 05:08:20;;;;;;;14.50;3.97;;;;;;;;;;4897128;29;20025;-69
2022/05/12 05:10:47;;;;;;;8.55;3.80;;;;;;;;;;4897112;29;20036;-69
2022/05/12 05:13:14;;;;;;;9.48;4.35;;;;;;;;;;4897605;29;20047;-69
2022/05/12 05:15:40;;;;;;;9.10;3.97;;;;;;;;;;4897762;29;20468;-69
2022/05/12 05:18:09;;;;;;;11.43;4.63;;;;;;;;;;4896875;29;20029;-69
2022/05/12 05:20:35;;;;;;;7.65;4.28;;;;;;;;;;4896987;29;20044;-69
2022/05/12 05:23:02;;;;;;;9.38;4.35;;;;;;;;;;4897027;29;20047;-69
2022/05/12 05:25:31;;;;;;;11.20;4.30;;;;;;;;;;4897677;29;20039;-69
2022/05/12 05:27:57;;;;;;;8.43;4.00;;;;;;;;;;4897304;29;20033;-69
2022/05/12 05:30:24;;;;;;;15.27;4.75;;;;;;;;;;4896934;29;20043;-69
2022/05/12 05:32:51;;;;;;;41.97;6.32;;;;;;;;;;4896457;29;20494;-69
2022/05/12 05:35:19;;;;;;;22.77;5.00;;;;;;;;;;4911188;29;20027;-69
2022/05/12 05:37:45;;;;;;;30.00;4.70;;;;;;;;;;4896924;29;20028;-69
2022/05/12 05:40:14;;;;;;;12.50;4.47;;;;;;;;;;4897305;29;20028;-69
2022/05/12 05:42:41;;;;;;;10.20;4.28;;;;;;;;;;4897100;29;20047;-69
2022/05/12 05:45:12;;;;;;;17.95;5.10;;;;;;;;;;4896630;29;20012;-69
2022/05/12 05:47:40;;;;;;;14.88;4.72;;;;;;;;;;4896252;29;20043;-69
2022/05/12 05:50:08;;;;;;;11.15;4.15;;;;;;;;;;4896829;29;20043;-69
2022/05/12 05:55:20;;;;;;;10.90;4.38;;;;;;;;;;4894575;29;20039;-69
2022/05/12 05:57:46;;;;;;;8.88;4.00;;;;;;;;;;4896893;29;20046;-69
2022/05/12 06:00:13;;;;;;;8.52;4.40;;;;;;;;;;4896454;29;20417;-69
2022/05/12 06:02:39;;;;;;;15.65;4.57;;;;;;;;;;4896440;29;20035;-69
2022/05/12 06:05:06;;;;;;;16.48;4.78;;;;;;;;;;4896868;29;20032;-69
2022/05/12 06:07:35;;;;;;;11.60;4.75;;;;;;;;;;4896590;29;20039;-69
2022/05/12 06:10:01;;;;;;;10.07;3.88;;;;;;;;;;4896890;29;20405;-69
2022/05/12 06:12:30;;;;;;;11.60;3.95;;;;;;;;;;4898279;29;20021;-69
2022/05/12 06:14:56;;;;;;;6.80;3.95;;;;;;;;;;4900093;29;20033;-69
2022/05/12 06:17:23;;;;;;;10.48;4.30;;;;;;;;;;4900108;29;20025;-69
2022/05/12 06:19:52;;;;;;;13.10;3.95;;;;;;;;;;4900410;29;20031;-69
2022/05/12 06:22:20;;;;;;;13.75;4.30;;;;;;;;;;4911032;29;20052;-69
2022/05/12 06:24:49;;;;;;;18.08;4.28;;;;;;;;;;4899625;29;20072;-69
2022/05/12 06:27:19;;;;;;;18.40;4.40;;;;;;;;;;4899283;29;20405;-69
2022/05/12 06:29:45;;;;;;;13.90;3.50;;;;;;;;;;4899421;29;20524;-69
2022/05/12 06:32:12;;;;;;;9.65;3.85;;;;;;;;;;4899256;29;20424;-69
2022/05/12 06:34:42;;;;;;;10.27;3.85;;;;;;;;;;4914157;29;20035;-69
2022/05/12 06:37:08;;;;;;;7.78;2.85;;;;;;;;;;4895828;29;20036;-69
2022/05/12 06:39:35;;;;;;;14.98;3.97;;;;;;;;;;4899664;29;20017;-69
2022/05/12 06:42:01;;;;;;;12.20;3.78;;;;;;;;;;4899426;29;20025;-70
2022/05/12 06:44:29;;;;;;;21.75;4.47;;;;;;;;;;4899154;29;20093;-69
2022/05/12 06:46:56;;;;;;;21.08;4.70;;;;;;;;;;4896824;29;20081;-69
2022/05/12 06:49:23;;;;;;;17.35;3.45;;;;;;;;;;4899374;29;20032;-69
2022/05/12 06:51:51;;;;;;;9.60;3.53;;;;;;;;;;4898052;29;20052;-69
2022/05/12 06:54:17;;;;;;;16.40;4.10;;;;;;;;;;4911996;29;20041;-69
2022/05/12 06:56:44;;;;;;;20.02;3.80;;;;;;;;;;4898837;29;20524;-69
2022/05/12 06:59:10;;;;;;;17.35;3.53;;;;;;;;;;4898952;29;20035;-68
2022/05/12 07:01:37;;;;;;;14.30;4.05;;;;;;;;;;4898983;29;20027;-69
2022/05/12 07:04:04;;;;;;;15.32;4.00;;;;;;;;;;4899447;29;20486;-69
2022/05/12 07:06:30;;;;;;;23.52;4.65;;;;;;;;;;4895985;29;20016;-69
2022/05/12 07:08:57;;;;;;;16.48;3.70;;;;;;;;;;4895881;29;20044;-69
2022/05/12 07:11:23;;;;;;;7.70;3.60;;;;;;;;;;4897889;29;20037;-69
2022/05/12 07:13:49;;;;;;;8.85;3.72;;;;;;;;;;4897613;29;20020;-69
2022/05/12 07:16:16;;;;;;;11.30;3.75;;;;;;;;;;4897446;29;20043;-67
2022/05/12 07:18:42;;;;;;;10.00;3.38;;;;;;;;;;4896818;29;20394;-69
2022/05/12 07:26:41;;;;;;;10.25;3.53;;;;;;;;;;4897483;29;20482;-67
2022/05/12 07:29:12;;;;;;;8.88;3.22;;;;;;;;;;4897228;29;20516;-68
2022/05/12 07:31:38;;;;;;;9.20;3.28;;;;;;;;;;4897563;29;20041;-68
2022/05/12 07:34:05;;;;;;;11.52;3.45;;;;;;;;;;4897136;29;20071;-67
2022/05/12 07:36:33;;;;;;;11.35;3.60;;;;;;;;;;4897423;29;20062;-67
2022/05/12 07:39:00;;;;;;;10.32;3.10;;;;;;;;;;4897422;29;20043;-67
2022/05/12 07:41:27;;;;;;;7.38;3.35;;;;;;;;;;4897242;29;20487;-68
2022/05/12 07:43:54;;;;;;;5.85;3.17;;;;;;;;;;4896744;29;20025;-68
2022/05/12 07:46:38;;;;;;;9.98;3.05;;;;;;;;;;4897342;29;20386;-68
2022/05/12 07:49:05;;;;;;;6.80;2.90;;;;;;;;;;4897620;29;20037;-68
2022/05/12 07:51:31;;;;;;;7.15;3.22;;;;;;;;;;4897112;29;20084;-68
2022/05/12 07:53:57;;;;;;;13.02;3.70;;;;;;;;;;4896910;29;20406;-68
2022/05/12 07:56:25;;;;;;;9.23;3.50;;;;;;;;;;4897369;29;20020;-68
2022/05/12 07:58:52;;;;;;;5.82;3.03;;;;;;;;;;4896699;29;20394;-68
2022/05/12 08:01:18;;;;;;;9.98;3.47;;;;;;;;;;4896912;29;20028;-68
2022/05/12 08:03:45;;;;;;;10.32;3.35;;;;;;;;;;4897046;29;20540;-68
2022/05/12 08:06:14;;;;;;;7.03;2.90;;;;;;;;;;4896833;29;20028;-68
2022/05/12 08:08:41;;;;;;;9.45;3.28;;;;;;;;;;4896999;29;20032;-68
2022/05/12 08:11:08;;;;;;;8.20;3.20;;;;;;;;;;4896714;29;20028;-68
2022/05/12 08:13:35;;;;;;;9.20;3.03;;;;;;;;;;4896212;29;20019;-68
2022/05/12 08:16:04;;;;;;;9.35;3.17;;;;;;;;;;4896765;29;20367;-68
2022/05/12 08:18:32;;;;;;;16.52;3.72;;;;;;;;;;4896568;29;20024;-68
2022/05/12 08:20:59;;;;;;;28.30;3.83;;;;;;;;;;4896462;29;20044;-68
2022/05/12 08:23:25;;;;;;;15.27;3.50;;;;;;;;;;4896637;29;20072;-68
2022/05/12 08:25:51;;;;;;;8.00;2.88;;;;;;;;;;4895788;29;20020;-68
2022/05/12 08:28:19;;;;;;;12.73;3.17;;;;;;;;;;4896794;29;20573;-68
2022/05/12 08:30:46;;;;;;;9.43;3.15;;;;;;;;;;4896987;29;20027;-68
2022/05/12 08:33:13;;;;;;;12.77;3.38;;;;;;;;;;4895726;29;20025;-67
2022/05/12 08:35:40;;;;;;;16.20;3.90;;;;;;;;;;4895566;29;20043;-67
2022/05/12 08:38:07;;;;;;;8.02;2.95;;;;;;;;;;4896511;29;20021;-68
2022/05/12 08:40:33;;;;;;;6.30;3.10;;;;;;;;;;4895811;29;20082;-68
2022/05/12 08:43:05;;;;;;;12.98;3.22;;;;;;;;;;4897073;29;20027;-68
2022/05/12 08:45:32;;;;;;;8.70;2.90;;;;;;;;;;4896001;29;21692;-68
2022/05/12 08:48:00;;;;;;;12.60;3.30;;;;;;;;;;4896171;29;20024;-68
2022/05/12 08:50:28;;;;;;;10.25;2.90;;;;;;;;;;4895642;29;20029;-68
2022/05/12 08:52:57;;;;;;;8.27;3.05;;;;;;;;;;4896245;29;20043;-68
2022/05/12 08:55:30;;;;;;;9.70;3.03;;;;;;;;;;4895972;29;20338;-68
2022/05/12 08:57:59;;;;;;;11.40;2.70;;;;;;;;;;4894423;29;20036;-68
2022/05/12 09:00:28;;;;;;;9.57;3.00;;;;;;;;;;4896179;29;20405;-68
2022/05/12 09:03:13;;;;;;;9.40;2.88;;;;;;;;;;4896908;29;20031;-68
2022/05/12 09:05:44;;;;;;;8.95;2.80;;;;;;;;;;4896450;29;20043;-68
2022/05/12 09:08:10;;;;;;;9.35;3.00;;;;;;;;;;4911118;29;20032;-68
2022/05/12 09:10:46;;;;;;;5.90;2.63;;;;;;;;;;4896456;29;20024;-68
2022/05/12 09:13:15;;;;;;;7.05;2.88;;;;;;;;;;4893732;29;20029;-68
2022/05/12 09:15:47;;;;;;;10.50;2.92;;;;;;;;;;4896710;29;20528;-68
2022/05/12 09:18:13;;;;;;;11.20;2.70;;;;;;;;;;4896286;29;20060;-68
2022/05/12 09:20:40;;;;;;;7.95;2.70;;;;;;;;;;4896219;29;20047;-68
2022/05/12 09:23:07;;;;;;;10.07;2.95;;;;;;;;;;4926384;29;20032;-68
2022/05/12 09:25:52;;;;;;;7.00;3.15;;;;;;;;;;4895991;29;20021;-68
2022/05/12 09:28:36;;;;;;;9.73;2.97;;;;;;;;;;4893908;29;20027;-68
2022/05/12 09:31:17;;;;;;;10.43;3.03;;;;;;;;;;4896056;29;20596;-68
2022/05/12 09:33:52;;;;;;;12.75;4.68;;;;;;;;;;4896659;29;20029;-68
2022/05/12 09:36:24;;;;;;;14.18;2.97;;;;;;;;;;4896144;29;20036;-68
2022/05/12 09:38:54;;;;;;;9.65;3.00;;;;;;;;;;4896012;29;20035;-68
2022/05/12 09:41:22;;;;;;;5.90;2.40;;;;;;;;;;4910801;29;20041;-68
2022/05/12 09:43:53;;;;;;;11.50;3.33;;;;;;;;;;4910913;29;20027;-68
2022/05/12 09:46:29;;;;;;;6.72;2.90;;;;;;;;;;4895972;29;20389;-68
2022/05/12 09:48:56;;;;;;;10.85;3.78;;;;;;;;;;4897019;29;20032;-68
2022/05/12 09:51:22;;;;;;;7.03;2.78;;;;;;;;;;4896215;29;20039;-68
2022/05/12 09:53:50;;;;;;;11.55;4.35;;;;;;;;;;4895892;29;20487;-68
2022/05/12 09:56:31;;;;;;;13.02;3.40;;;;;;;;;;4896129;29;20512;-68
2022/05/12 09:58:59;;;;;;;8.13;2.88;;;;;;;;;;4896436;29;20028;-68
2022/05/12 10:01:30;;;;;;;5.93;2.80;;;;;;;;;;4896399;29;20036;-67
2022/05/12 10:09:52;;;;;;;9.85;3.10;;;;;;;;;;4892912;29;20024;-67
2022/05/12 10:12:26;;;;;;;10.60;3.00;;;;;;;;;;4896170;29;20025;-67
2022/05/12 10:14:58;;;;;;;13.02;3.08;;;;;;;;;;4896257;29;20048;-68
2022/05/12 10:17:36;;;;;;;8.82;3.30;;;;;;;;;;4896269;29;20462;-67
2022/05/12 10:20:08;;;;;;;15.27;3.50;;;;;;;;;;4896252;29;20032;-67
2022/05/12 10:22:35;;;;;;;9.52;3.22;;;;;;;;;;4876947;29;20534;-67
2022/05/12 10:25:13;;;;;;;14.13;3.22;;;;;;;;;;4878085;29;20100;-68
2022/05/12 10:27:58;;;;;;;8.98;3.45;;;;;;;;;;4876533;29;20495;-68
2022/05/12 10:30:35;;;;;;;7.20;2.97;;;;;;;;;;4877633;29;20025;-67
2022/05/12 10:33:02;;;;;;;8.75;2.85;;;;;;;;;;4877392;29;20384;-68
2022/05/12 10:35:34;;;;;;;9.38;3.17;;;;;;;;;;4877328;29;20025;-68
2022/05/12 10:38:09;;;;;;;10.25;3.60;;;;;;;;;;4907206;29;20112;-68
2022/05/12 10:40:43;;;;;;;10.10;3.28;;;;;;;;;;4877254;29;20063;-67
2022/05/12 10:43:27;;;;;;;6.97;3.17;;;;;;;;;;4873956;29;20491;-67
2022/05/12 10:46:13;;;;;;;7.13;3.28;;;;;;;;;;4875905;29;20406;-67
2022/05/12 10:48:39;;;;;;;12.13;3.50;;;;;;;;;;4877354;29;20039;-68
2022/05/12 10:51:07;;;;;;;11.75;3.13;;;;;;;;;;4877298;29;20037;-67
2022/05/12 10:53:39;;;;;;;7.85;2.50;;;;;;;;;;4891983;29;20029;-68
2022/05/12 10:56:08;;;;;;;6.15;2.67;;;;;;;;;;4877710;29;20025;-67
2022/05/12 10:58:53;;;;;;;6.30;2.75;;;;;;;;;;4879215;29;20096;-68
2022/05/12 11:01:22;;;;;;;9.15;2.97;;;;;;;;;;4878487;29;20037;-68
2022/05/12 11:04:07;;;;;;;9.32;3.00;;;;;;;;;;4880970;29;20029;-68
2022/05/12 11:06:41;;;;;;;9.85;3.13;;;;;;;;;;4880250;29;20029;-67
2022/05/12 11:09:14;;;;;;;7.35;2.83;;;;;;;;;;4880234;29;20035;-68
2022/05/12 11:11:45;;;;;;;10.35;2.90;;;;;;;;;;4880364;29;20406;-68
2022/05/12 11:14:44;;;;;;;8.95;2.92;;;;;;;;;;4880486;29;20029;-68
2022/05/12 11:17:10;;;;;;;10.48;3.15;;;;;;;;;;4827806;29;20525;-68
2022/05/12 11:19:37;;;;;;;15.93;3.30;;;;;;;;;;4838203;29;20042;-68
2022/05/12 11:22:24;;;;;;;10.52;2.97;;;;;;;;;;4839866;29;20054;-67
2022/05/12 11:25:17;;;;;;;9.52;3.03;;;;;;;;;;4840046;29;20037;-67
2022/05/12 11:27:52;;;;;;;10.02;2.53;;;;;;;;;;4836738;29;20042;-68
2022/05/12 11:30:18;;;;;;;7.20;3.30;;;;;;;;;;4838723;29;20149;-68
2022/05/12 11:32:44;;;;;;;8.88;2.65;;;;;;;;;;4838514;29;20042;-68
2022/05/12 11:35:17;;;;;;;9.80;2.72;;;;;;;;;;4838449;29;20075;-68
2022/05/12 11:37:44;;;;;;;12.30;3.28;;;;;;;;;;4826824;29;20547;-68
2022/05/12 11:40:10;;;;;;;10.82;3.58;;;;;;;;;;4840156;29;20439;-68
2022/05/12 11:46:15;;;;;;;7.38;2.80;;;;;;;;;;4772808;30;20044;-68
2022/05/12 11:48:50;;;;;;;9.43;2.60;;;;;;;;;;4781125;30;20534;-68
2022/05/12 11:51:18;;;;;;;13.38;2.92;;;;;;;;;;4784847;30;20054;-68
2022/05/12 11:53:55;;;;;;;10.52;2.42;;;;;;;;;;4792788;29;20630;-68
2022/05/12 11:56:40;;;;;;;8.48;2.40;;;;;;;;;;4799081;29;20442;-67
2022/05/12 11:59:19;;;;;;;13.43;2.92;;;;;;;;;;4800166;29;20034;-68
2022/05/12 12:01:50;;;;;;;7.53;2.60;;;;;;;;;;4802574;29;20420;-67
2022/05/12 12:04:37;;;;;;;10.60;3.17;;;;;;;;;;4799184;29;20115;-68
2022/05/12 12:07:17;;;;;;;7.28;2.92;;;;;;;;;;4799767;29;20035;-68
2022/05/12 12:09:43;;;;;;;9.27;2.78;;;;;;;;;;4803058;29;20090;-68
2022/05/12 12:12:11;;;;;;;7.35;2.80;;;;;;;;;;4802880;29;20026;-67
2022/05/12 12:14:44;;;;;;;15.77;3.22;;;;;;;;;;4798711;29;20531;-68
2022/05/12 12:17:13;;;;;;;10.43;2.58;;;;;;;;;;4847079;29;20555;-67
2022/05/12 12:19:43;;;;;;;8.27;2.83;;;;;;;;;;4843230;29;20026;-68
2022/05/12 12:22:15;;;;;;;9.37;3.13;;;;;;;;;;4887013;29;20425;-68
2022/05/12 12:24:44;;;;;;;8.13;3.15;;;;;;;;;;4896949;29;20031;-68
2022/05/12 12:27:26;;;;;;;12.75;3.08;;;;;;;;;;4896683;29;20502;-68
2022/05/12 12:29:53;;;;;;;13.07;3.22;;;;;;;;;;4896792;29;20029;-67
2022/05/12 12:32:19;;;;;;;9.48;2.80;;;;;;;;;;4894389;29;20024;-68
2022/05/12 12:34:49;;;;;;;8.55;2.72;;;;;;;;;;4896544;29;20035;-67
2022/05/12 12:37:35;;;;;;;15.52;2.92;;;;;;;;;;4895570;29;20036;-68
2022/05/12 12:40:01;;;;;;;16.08;3.00;;;;;;;;;;4896857;29;20037;-67
2022/05/12 12:42:34;;;;;;;7.65;2.90;;;;;;;;;;4896276;29;20032;-68
2022/05/12 12:45:06;;;;;;;14.90;3.10;;;;;;;;;;4896507;29;20028;-68
2022/05/12 12:47:39;;;;;;;10.27;3.00;;;;;;;;;;4896187;29;20028;-68
2022/05/12 12:50:21;;;;;;;11.82;2.67;;;;;;;;;;4896475;29;20024;-67
2022/05/12 12:52:48;;;;;;;12.68;2.90;;;;;;;;;;4882302;29;20533;-68
2022/05/12 12:58:26;;;;;;;9.25;3.00;;;;;;;;;;4893025;29;20043;-67
2022/05/12 13:01:00;;;;;;;7.40;2.97;;;;;;;;;;4896475;29;20494;-68
2022/05/12 13:03:33;;;;;;;12.25;3.33;;;;;;;;;;4894400;29;20091;-67
2022/05/12 13:06:14;;;;;;;9.32;2.80;;;;;;;;;;4896059;29;20028;-67
2022/05/12 13:08:41;;;;;;;12.73;2.90;;;;;;;;;;4910018;29;20040;-68
2022/05/12 13:11:08;;;;;;;9.35;2.50;;;;;;;;;;4895582;29;20013;-69
2022/05/12 13:13:50;;;;;;;8.90;2.80;;;;;;;;;;4895935;29;20050;-70
2022/05/12 13:16:18;;;;;;;14.48;3.45;;;;;;;;;;4892746;29;20032;-70
2022/05/12 13:18:46;;;;;;;14.45;3.15;;;;;;;;;;4895271;29;20047;-68
2022/05/12 13:21:19;;;;;;;8.98;2.95;;;;;;;;;;4894854;29;20053;-69
2022/05/12 13:23:57;;;;;;;9.93;2.72;;;;;;;;;;4895305;29;20028;-70
2022/05/12 13:26:23;;;;;;;10.25;2.65;;;;;;;;;;4895664;29;20091;-70
2022/05/12 13:28:50;;;;;;;13.18;2.83;;;;;;;;;;4895857;29;20031;-69
2022/05/12 13:31:23;;;;;;;11.93;2.70;;;;;;;;;;4894622;29;20040;-69
2022/05/12 13:34:00;;;;;;;10.68;2.58;;;;;;;;;;4896205;29;20042;-69
2022/05/12 13:36:29;;;;;;;13.43;3.08;;;;;;;;;;4895902;29;20036;-70
2022/05/12 13:38:56;;;;;;;9.63;2.70;;;;;;;;;;4895382;29;20040;-70
2022/05/12 13:41:25;;;;;;;11.02;3.00;;;;;;;;;;4895641;29;20028;-69
2022/05/12 13:43:52;;;;;;;10.68;2.80;;;;;;;;;;4895650;29;20041;-70
2022/05/12 13:46:18;;;;;;;14.55;2.97;;;;;;;;;;4895798;29;20033;-70
2022/05/12 13:49:04;;;;;;;13.73;2.80;;;;;;;;;;4909221;29;20047;-69
2022/05/12 13:51:41;;;;;;;9.73;2.45;;;;;;;;;;4895264;29;20036;-69
2022/05/12 13:54:08;;;;;;;12.18;2.45;;;;;;;;;;4895540;29;20442;-69
2022/05/12 13:56:38;;;;;;;13.07;2.63;;;;;;;;;;4894608;29;20044;-69
2022/05/12 13:59:05;;;;;;;;;;;;;;;;;;4895281;29;20016;-69
2022/05/12 14:01:35;;;;;;;10.18;2.20;;;;;;;;;;4894712;29;20399;-69
2022/05/12 14:04:04;;;;;;;11.65;2.33;;;;;;;;;;4895754;29;20032;-69
2022/05/12 14:06:32;;;;;;;13.80;2.60;;;;;;;;;;4894791;29;20044;-69
2022/05/12 14:09:13;;;;;;;13.30;2.28;;;;;;;;;;4895573;29;20035;-69
2022/05/12 14:11:40;;;;;;;10.05;2.53;;;;;;;;;;4895158;29;20043;-69
2022/05/12 14:19:42;;;;;;;6.95;2.10;;;;;;;;;;4893968;29;20035;-69
2022/05/12 14:22:15;;;;;;;8.88;2.20;;;;;;;;;;4891338;29;20447;-69
2022/05/12 14:24:45;;;;;;;12.45;2.55;;;;;;;;;;4894812;29;20036;-69
2022/05/12 14:27:12;;;;;;;7.83;2.37;;;;;;;;;;4894973;29;20031;-69
2022/05/12 14:29:39;;;;;;;9.68;2.58;;;;;;;;;;4894700;29;20027;-69
2022/05/12 14:32:06;;;;;;;10.50;2.33;;;;;;;;;;4894883;29;20029;-69
2022/05/12 14:34:32;;;;;;;7.95;2.72;;;;;;;;;;4898731;29;20028;-69
2022/05/12 14:37:00;;;;;;;11.60;2.40;;;;;;;;;;4899172;29;20032;-69
2022/05/12 14:39:27;;;;;;;16.38;2.30;;;;;;;;;;4898403;29;20031;-69
2022/05/12 14:41:54;;;;;;;11.15;2.20;;;;;;;;;;4928308;29;20056;-69
2022/05/12 14:44:21;;;;;;;10.75;2.78;;;;;;;;;;4897974;29;20021;-69
2022/05/12 14:46:50;;;;;;;13.65;2.90;;;;;;;;;;4898931;29;20024;-69
2022/05/12 14:49:22;;;;;;;7.97;2.20;;;;;;;;;;4898576;29;20024;-69
2022/05/12 14:51:48;;;;;;;6.35;2.10;;;;;;;;;;4898369;29;20058;-69
2022/05/12 14:54:15;;;;;;;12.98;2.45;;;;;;;;;;4898538;29;20040;-69
2022/05/12 14:56:42;;;;;;;12.95;2.55;;;;;;;;;;4898651;29;20039;-69
2022/05/12 14:59:08;;;;;;;9.60;2.30;;;;;;;;;;4896653;29;20023;-69
2022/05/12 15:01:35;;;;;;;7.93;2.33;;;;;;;;;;4897385;29;20043;-71
2022/05/12 15:04:01;;;;;;;11.93;2.35;;;;;;;;;;4898738;29;20050;-69
2022/05/12 15:06:29;;;;;;;7.45;1.60;;;;;;;;;;4897796;29;20054;-69
2022/05/12 15:08:56;;;;;;;9.45;2.50;;;;;;;;;;4896706;29;20032;-69
2022/05/12 15:11:22;;;;;;;7.13;2.25;;;;;;;;;;4898088;29;20486;-69
2022/05/12 15:13:48;;;;;;;12.77;2.30;;;;;;;;;;4896433;29;20023;-69
2022/05/12 15:16:16;;;;;;;8.27;2.42;;;;;;;;;;4898357;29;20033;-69
2022/05/12 15:18:42;;;;;;;9.52;2.20;;;;;;;;;;4898534;29;20036;-69